Time;durP1;ratioP1;P1;durP2;ratioP2;P2;SDS_P1;SDS_P2;PMS_P1;PMS_P2;Temp;Humidity;BMP_temperature;BMP_pressure;BME280_temperature;BME280_humidity;BME280_pressure;Samples;Min_cycle;Max_cycle;Signal;HPM_P1;HPM_P2
2023/07/08 00:00:42;;;;;;;0.10;0.10;;;13.30;59.00;;;;;;5050088;28;20274;-54
2023/07/08 00:03:14;;;;;;;0.10;0.10;;;13.40;59.00;;;;;;5050165;28;20212;-50
2023/07/08 00:05:46;;;;;;;0.10;0.10;;;13.40;59.00;;;;;;5051177;28;20199;-50
2023/07/08 00:08:20;;;;;;;0.10;0.10;;;13.40;59.10;;;;;;5050807;28;20202;-53
2023/07/08 00:10:51;;;;;;;0.10;0.10;;;13.40;59.00;;;;;;5049362;28;20198;-54
2023/07/08 00:13:22;;;;;;;0.10;0.10;;;13.40;59.10;;;;;;5060481;28;20218;-54
2023/07/08 00:15:52;;;;;;;0.10;0.10;;;13.40;59.10;;;;;;5057784;28;20195;-52
2023/07/08 00:18:25;;;;;;;0.10;0.10;;;13.40;59.10;;;;;;5058257;28;20230;-56
2023/07/08 00:20:56;;;;;;;0.10;0.10;;;13.40;59.10;;;;;;5054011;28;20222;-50
2023/07/08 00:23:26;;;;;;;0.17;0.17;;;13.40;59.10;;;;;;5054219;28;20261;-57
2023/07/08 00:25:57;;;;;;;0.10;0.10;;;13.40;59.20;;;;;;5053373;28;20194;-49
2023/07/08 00:28:28;;;;;;;0.10;0.10;;;13.40;59.20;;;;;;5034378;28;20200;-58
2023/07/08 00:30:58;;;;;;;0.10;0.10;;;13.40;59.20;;;;;;5052185;28;20195;-54
2023/07/08 00:33:31;;;;;;;0.10;0.10;;;13.50;59.20;;;;;;5054633;28;20565;-52
2023/07/08 00:36:02;;;;;;;0.10;0.10;;;13.50;59.30;;;;;;5054618;28;20647;-54
2023/07/08 00:38:34;;;;;;;0.10;0.10;;;13.50;59.30;;;;;;5055173;28;20561;-56
2023/07/08 00:41:13;;;;;;;0.10;0.10;;;13.50;59.90;;;;;;5054334;28;20607;-54
2023/07/08 00:43:47;;;;;;;0.10;0.10;;;13.50;59.30;;;;;;5054158;28;20219;-56
2023/07/08 00:46:47;;;;;;;0.00;0.00;;;13.50;59.30;;;;;;5054867;28;20214;-54
2023/07/08 00:49:31;;;;;;;0.10;0.10;;;13.50;59.40;;;;;;5054435;28;20576;-56
2023/07/08 00:52:20;;;;;;;0.10;0.10;;;13.50;59.30;;;;;;5054278;28;20219;-57
2023/07/08 00:54:54;;;;;;;0.10;0.10;;;13.50;59.40;;;;;;5054627;28;20235;-57
2023/07/08 00:57:28;;;;;;;0.10;0.10;;;13.50;59.50;;;;;;5053758;28;20280;-58
2023/07/08 01:00:02;;;;;;;0.10;0.10;;;13.50;59.60;;;;;;5052514;28;20223;-50
2023/07/08 01:02:35;;;;;;;0.10;0.10;;;13.50;60.30;;;;;;5052840;28;20245;-55
2023/07/08 01:05:11;;;;;;;0.10;0.10;;;13.50;59.70;;;;;;5052268;28;20227;-58
2023/07/08 01:07:44;;;;;;;0.10;0.10;;;13.50;59.70;;;;;;5052936;28;20278;-58
2023/07/08 01:10:19;;;;;;;0.10;0.10;;;13.50;59.70;;;;;;5052936;28;20277;-56
2023/07/08 01:13:02;;;;;;;0.10;0.10;;;13.50;59.70;;;;;;5052420;28;20265;-56
2023/07/08 01:15:39;;;;;;;0.10;0.10;;;13.50;59.70;;;;;;5059061;28;20634;-55
2023/07/08 01:18:11;;;;;;;0.10;0.10;;;13.60;59.70;;;;;;5054960;28;20250;-57
2023/07/08 01:20:44;;;;;;;0.13;0.13;;;13.60;59.80;;;;;;5052966;28;20196;-55
2023/07/08 01:23:16;;;;;;;0.13;0.13;;;13.60;59.80;;;;;;5052375;28;20572;-57
2023/07/08 01:25:48;;;;;;;0.10;0.10;;;13.60;59.80;;;;;;5051541;28;20206;-53
2023/07/08 01:28:20;;;;;;;0.10;0.10;;;13.60;59.80;;;;;;5052092;28;20214;-55
2023/07/08 01:30:52;;;;;;;0.10;0.10;;;13.60;59.80;;;;;;5053422;28;20238;-53
2023/07/08 01:33:24;;;;;;;0.10;0.10;;;13.60;59.70;;;;;;5046431;28;20219;-55
2023/07/08 01:35:56;;;;;;;0.10;0.10;;;13.60;59.70;;;;;;5052281;28;20210;-55
2023/07/08 01:38:29;;;;;;;0.10;0.10;;;13.60;59.80;;;;;;5062551;28;20226;-56
2023/07/08 01:41:01;;;;;;;0.10;0.10;;;13.60;59.80;;;;;;5072562;28;20206;-56
2023/07/08 01:43:32;;;;;;;0.10;0.10;;;13.60;59.80;;;;;;5070270;28;20268;-52
2023/07/08 01:46:04;;;;;;;0.10;0.10;;;13.60;59.80;;;;;;5071752;28;20214;-56
2023/07/08 01:48:39;;;;;;;0.10;0.10;;;13.60;59.80;;;;;;5070880;28;20240;-56
2023/07/08 01:51:10;;;;;;;0.10;0.10;;;13.60;59.80;;;;;;5071693;28;20206;-56
2023/07/08 01:53:44;;;;;;;0.10;0.10;;;13.60;59.90;;;;;;5071040;28;20223;-58
2023/07/08 01:56:15;;;;;;;0.10;0.10;;;13.60;60.00;;;;;;5071948;28;20218;-58
2023/07/08 01:58:46;;;;;;;0.10;0.10;;;13.60;60.00;;;;;;5071666;28;20233;-57
2023/07/08 02:01:16;;;;;;;0.10;0.10;;;13.70;60.10;;;;;;5071811;28;20209;-55
2023/07/08 02:03:47;;;;;;;0.10;0.10;;;13.70;60.10;;;;;;5071846;28;20219;-58
2023/07/08 02:06:19;;;;;;;0.10;0.10;;;13.60;60.20;;;;;;5071724;28;20297;-56
2023/07/08 02:08:52;;;;;;;0.10;0.10;;;13.70;60.20;;;;;;5071621;28;20205;-55
2023/07/08 02:11:22;;;;;;;0.10;0.10;;;13.70;60.40;;;;;;5071719;28;20674;-57
2023/07/08 02:13:53;;;;;;;0.20;0.20;;;13.70;60.40;;;;;;5070775;28;20222;-56
2023/07/08 02:16:24;;;;;;;0.10;0.10;;;13.60;60.40;;;;;;5073370;28;20666;-55
2023/07/08 02:18:54;;;;;;;0.10;0.10;;;13.70;60.40;;;;;;5073463;28;20276;-55
2023/07/08 02:21:25;;;;;;;0.10;0.10;;;13.70;60.90;;;;;;5073291;28;20205;-55
2023/07/08 02:23:58;;;;;;;0.10;0.10;;;13.70;61.10;;;;;;5073054;28;20214;-58
2023/07/08 02:26:31;;;;;;;0.10;0.10;;;13.70;61.10;;;;;;5055926;28;20195;-51
2023/07/08 02:29:02;;;;;;;0.10;0.10;;;13.70;61.00;;;;;;5053156;28;20199;-58
2023/07/08 02:31:33;;;;;;;0.10;0.10;;;13.70;60.90;;;;;;5053331;28;20195;-59
2023/07/08 02:34:03;;;;;;;0.10;0.10;;;13.70;60.90;;;;;;5052790;28;20338;-56
2023/07/08 02:36:36;;;;;;;0.10;0.10;;;13.70;60.90;;;;;;5035736;28;20226;-59
2023/07/08 02:39:09;;;;;;;0.10;0.10;;;13.80;61.00;;;;;;5032065;28;20220;-53
2023/07/08 02:41:39;;;;;;;0.10;0.10;;;13.80;60.90;;;;;;5033139;28;20204;-54
2023/07/08 02:44:10;;;;;;;0.10;0.10;;;13.80;60.90;;;;;;5066049;28;20240;-57
2023/07/08 02:46:41;;;;;;;0.10;0.10;;;13.80;61.00;;;;;;5072610;28;20248;-53
2023/07/08 02:49:11;;;;;;;0.10;0.10;;;13.80;60.90;;;;;;5072791;28;20571;-55
2023/07/08 02:51:42;;;;;;;0.10;0.10;;;13.80;60.90;;;;;;5072741;28;20195;-57
2023/07/08 02:54:14;;;;;;;0.10;0.10;;;13.80;61.00;;;;;;5071895;28;20218;-55
2023/07/08 02:56:45;;;;;;;0.10;0.10;;;13.80;61.10;;;;;;5071710;28;20203;-59
2023/07/08 02:59:16;;;;;;;0.10;0.10;;;13.80;61.10;;;;;;5071879;28;20222;-55
2023/07/08 03:01:46;;;;;;;0.20;0.20;;;13.90;61.20;;;;;;5071908;28;20314;-54
2023/07/08 03:04:18;;;;;;;0.10;0.10;;;13.80;61.00;;;;;;5072507;28;20211;-53
2023/07/08 03:06:49;;;;;;;0.10;0.10;;;13.80;61.00;;;;;;5072486;28;20202;-51
2023/07/08 03:09:21;;;;;;;0.10;0.10;;;13.90;61.00;;;;;;5072090;28;20228;-57
2023/07/08 03:11:52;;;;;;;0.10;0.10;;;13.90;60.90;;;;;;5072117;28;20206;-56
2023/07/08 03:14:23;;;;;;;0.10;0.10;;;13.90;60.90;;;;;;5072573;28;20276;-56
2023/07/08 03:16:53;;;;;;;0.10;0.10;;;13.90;60.90;;;;;;5064968;28;20543;-56
2023/07/08 03:19:24;;;;;;;0.10;0.10;;;13.90;60.80;;;;;;5052136;28;20306;-56
2023/07/08 03:21:54;;;;;;;0.10;0.10;;;13.90;60.80;;;;;;5051985;28;20616;-55
2023/07/08 03:24:29;;;;;;;0.10;0.10;;;13.90;60.80;;;;;;5052191;28;20223;-56
2023/07/08 03:27:04;;;;;;;0.10;0.10;;;13.90;60.80;;;;;;5051516;28;20270;-55
2023/07/08 03:29:38;;;;;;;0.10;0.10;;;13.90;60.70;;;;;;5052232;28;20195;-55
2023/07/08 03:32:11;;;;;;;0.10;0.10;;;13.90;60.70;;;;;;5051927;28;20682;-60
2023/07/08 03:34:41;;;;;;;0.10;0.10;;;13.90;60.60;;;;;;5051619;28;20223;-54
2023/07/08 03:37:13;;;;;;;0.10;0.10;;;14.00;60.70;;;;;;5051662;28;20202;-59
2023/07/08 03:39:45;;;;;;;0.00;0.00;;;13.90;60.60;;;;;;5051288;28;20223;-56
2023/07/08 03:42:16;;;;;;;0.10;0.10;;;14.00;60.60;;;;;;5052198;28;20655;-57
2023/07/08 03:44:46;;;;;;;0.10;0.10;;;13.90;60.40;;;;;;5069091;28;20589;-58
2023/07/08 03:47:17;;;;;;;0.10;0.10;;;13.90;60.40;;;;;;5049615;28;20198;-58
2023/07/08 03:49:48;;;;;;;0.10;0.10;;;13.90;60.40;;;;;;5051112;28;20202;-57
2023/07/08 03:52:19;;;;;;;0.10;0.10;;;13.90;60.30;;;;;;5051163;28;20211;-55
2023/07/08 03:54:51;;;;;;;0.10;0.10;;;14.00;60.40;;;;;;5051634;28;20199;-53
2023/07/08 03:57:22;;;;;;;0.10;0.10;;;13.90;60.20;;;;;;5051462;28;20199;-56
2023/07/08 03:59:53;;;;;;;0.10;0.10;;;14.00;60.30;;;;;;5051550;28;20280;-57
2023/07/08 04:02:23;;;;;;;0.10;0.10;;;14.00;60.20;;;;;;5051586;28;20203;-56
2023/07/08 04:04:54;;;;;;;0.10;0.10;;;14.00;60.30;;;;;;5051310;28;20207;-56
2023/07/08 04:07:25;;;;;;;0.10;0.10;;;14.00;60.20;;;;;;5051297;28;20210;-58
2023/07/08 04:09:57;;;;;;;0.10;0.10;;;14.00;60.20;;;;;;5051236;28;20666;-56
2023/07/08 04:12:28;;;;;;;0.10;0.10;;;14.00;60.20;;;;;;5053942;28;20206;-56
2023/07/08 04:14:58;;;;;;;0.10;0.10;;;14.00;60.20;;;;;;5071882;28;20198;-58
2023/07/08 04:17:29;;;;;;;0.00;0.00;;;14.00;60.20;;;;;;5071543;28;20194;-54
2023/07/08 04:20:03;;;;;;;0.10;0.10;;;14.00;60.20;;;;;;5070864;28;20226;-53
2023/07/08 04:22:33;;;;;;;0.13;0.13;;;14.00;60.10;;;;;;5070860;28;20202;-59
2023/07/08 04:25:06;;;;;;;0.10;0.10;;;14.00;60.10;;;;;;5059580;28;20192;-51
2023/07/08 04:27:37;;;;;;;0.10;0.10;;;14.00;60.00;;;;;;5051038;28;20191;-60
2023/07/08 04:30:08;;;;;;;0.10;0.10;;;14.00;60.00;;;;;;5050995;28;20191;-60
2023/07/08 04:32:39;;;;;;;0.05;0.05;;;14.00;60.00;;;;;;5048954;28;20530;-53
2023/07/08 04:35:10;;;;;;;0.10;0.10;;;14.00;60.00;;;;;;5032870;28;20287;-59
2023/07/08 04:37:41;;;;;;;0.05;0.05;;;14.00;60.00;;;;;;5033498;28;20199;-56
2023/07/08 04:40:21;;;;;;;0.10;0.10;;;14.00;59.90;;;;;;5030988;28;20228;-60
2023/07/08 04:42:51;;;;;;;0.10;0.10;;;14.00;59.90;;;;;;5042688;28;20215;-60
2023/07/08 04:45:22;;;;;;;0.10;0.10;;;14.00;60.00;;;;;;5071075;28;20733;-60
2023/07/08 04:47:52;;;;;;;0.10;0.10;;;14.10;60.00;;;;;;5071123;28;20235;-58
2023/07/08 04:50:23;;;;;;;0.10;0.10;;;14.00;60.00;;;;;;5071218;28;20195;-58
2023/07/08 04:52:54;;;;;;;0.10;0.10;;;14.10;60.00;;;;;;5070962;28;20215;-60
2023/07/08 04:55:26;;;;;;;0.13;0.13;;;14.00;60.00;;;;;;5071068;28;20529;-60
2023/07/08 04:57:57;;;;;;;0.10;0.10;;;14.10;60.00;;;;;;5070992;28;20194;-56
2023/07/08 05:00:28;;;;;;;0.10;0.10;;;14.10;60.00;;;;;;5070923;28;20229;-53
2023/07/08 05:02:59;;;;;;;0.10;0.10;;;14.10;59.90;;;;;;5072181;28;20214;-53
2023/07/08 05:05:29;;;;;;;0.10;0.10;;;14.10;60.00;;;;;;5074951;28;20202;-54
2023/07/08 05:08:00;;;;;;;0.10;0.10;;;14.10;59.90;;;;;;5074507;28;20191;-52
2023/07/08 05:10:32;;;;;;;0.10;0.10;;;14.10;59.90;;;;;;5074353;28;20203;-54
2023/07/08 05:13:03;;;;;;;0.10;0.10;;;14.10;59.90;;;;;;5074298;28;20222;-53
2023/07/08 05:15:35;;;;;;;0.10;0.10;;;14.10;60.00;;;;;;5074293;28;20568;-56
2023/07/08 05:18:05;;;;;;;0.10;0.10;;;14.10;60.00;;;;;;5074785;28;20202;-53
2023/07/08 05:20:36;;;;;;;0.10;0.10;;;14.10;60.10;;;;;;5056465;28;20227;-59
2023/07/08 05:23:07;;;;;;;0.10;0.10;;;14.10;60.10;;;;;;5054204;28;20582;-52
2023/07/08 05:25:39;;;;;;;0.10;0.10;;;14.10;60.20;;;;;;5053970;28;20191;-58
2023/07/08 05:28:10;;;;;;;0.10;0.10;;;14.10;60.50;;;;;;5054272;28;20207;-57
2023/07/08 05:30:43;;;;;;;0.10;0.10;;;14.20;60.60;;;;;;5053495;28;20745;-56
2023/07/08 05:33:14;;;;;;;0.10;0.10;;;14.10;60.60;;;;;;5049872;28;20996;-57
2023/07/08 05:35:47;;;;;;;0.10;0.10;;;14.20;60.60;;;;;;5034180;28;20227;-55
2023/07/08 05:38:18;;;;;;;0.10;0.10;;;14.20;60.60;;;;;;5034389;28;20203;-55
2023/07/08 05:40:56;;;;;;;0.10;0.10;;;14.20;60.50;;;;;;5033569;28;20220;-51
2023/07/08 05:43:27;;;;;;;0.10;0.10;;;14.20;60.40;;;;;;5055172;28;20218;-52
2023/07/08 05:46:02;;;;;;;0.10;0.10;;;14.20;60.40;;;;;;5063229;28;20196;-55
2023/07/08 05:48:32;;;;;;;0.10;0.10;;;14.20;60.30;;;;;;5053104;28;20202;-52
2023/07/08 05:51:03;;;;;;;0.10;0.10;;;14.20;60.30;;;;;;5053154;28;20199;-52
2023/07/08 05:53:33;;;;;;;0.10;0.10;;;14.20;60.20;;;;;;5053229;28;20629;-53
2023/07/08 05:56:06;;;;;;;0.10;0.10;;;14.20;60.10;;;;;;5053288;28;20252;-58
2023/07/08 05:58:37;;;;;;;0.10;0.10;;;14.20;60.00;;;;;;5052976;28;20215;-55
2023/07/08 06:01:08;;;;;;;0.13;0.13;;;14.20;60.10;;;;;;5053505;28;20223;-56
2023/07/08 06:03:41;;;;;;;0.10;0.10;;;14.20;60.00;;;;;;5053454;28;20272;-57
2023/07/08 06:06:11;;;;;;;0.10;0.10;;;14.20;60.10;;;;;;5053510;28;20199;-56
2023/07/08 06:08:43;;;;;;;0.10;0.10;;;14.20;60.00;;;;;;5053500;28;20203;-54
2023/07/08 06:11:16;;;;;;;0.10;0.10;;;14.20;60.00;;;;;;5053220;28;20203;-54
2023/07/08 06:13:46;;;;;;;0.10;0.10;;;14.20;60.00;;;;;;5065186;28;20219;-53
2023/07/08 06:16:17;;;;;;;0.10;0.10;;;14.20;60.00;;;;;;5073761;28;20199;-50
2023/07/08 06:18:48;;;;;;;0.10;0.10;;;14.20;60.00;;;;;;5073291;28;20199;-48
2023/07/08 06:21:18;;;;;;;0.10;0.10;;;14.20;60.00;;;;;;5048251;28;20224;-52
2023/07/08 06:23:49;;;;;;;0.10;0.10;;;14.20;59.90;;;;;;5032181;28;20220;-54
2023/07/08 06:26:21;;;;;;;0.10;0.10;;;14.20;60.00;;;;;;5033183;28;20628;-54
2023/07/08 06:28:52;;;;;;;0.10;0.10;;;14.20;60.00;;;;;;5050134;28;20651;-52
2023/07/08 06:31:23;;;;;;;0.10;0.10;;;14.20;59.90;;;;;;5049990;28;20196;-54
2023/07/08 06:33:53;;;;;;;0.10;0.10;;;14.20;59.90;;;;;;5052486;28;20224;-58
2023/07/08 06:36:24;;;;;;;0.10;0.10;;;14.20;59.90;;;;;;5053132;28;20206;-52
2023/07/08 06:38:55;;;;;;;0.10;0.10;;;14.20;59.80;;;;;;5052945;28;20231;-54
2023/07/08 06:41:27;;;;;;;0.13;0.13;;;14.20;59.90;;;;;;5051455;28;20231;-56
2023/07/08 06:43:58;;;;;;;0.10;0.10;;;14.20;59.90;;;;;;5061880;28;20230;-52
2023/07/08 06:46:29;;;;;;;0.10;0.10;;;14.20;59.90;;;;;;5072559;28;20599;-54
2023/07/08 06:48:59;;;;;;;0.10;0.10;;;14.20;59.90;;;;;;5072684;28;20202;-52
2023/07/08 06:51:30;;;;;;;0.10;0.10;;;14.20;59.90;;;;;;5072960;28;20190;-54
2023/07/08 06:54:04;;;;;;;0.10;0.10;;;14.20;59.90;;;;;;5072749;28;20271;-55
2023/07/08 06:56:37;;;;;;;0.10;0.10;;;14.20;59.90;;;;;;5071682;28;20202;-52
2023/07/08 06:59:07;;;;;;;0.10;0.10;;;14.20;59.80;;;;;;5072220;28;20199;-54
2023/07/08 07:01:38;;;;;;;0.10;0.10;;;14.20;59.90;;;;;;5072340;28;20694;-56
2023/07/08 07:04:09;;;;;;;0.10;0.10;;;14.20;59.80;;;;;;5072202;28;20647;-52
2023/07/08 07:06:39;;;;;;;0.10;0.10;;;14.20;59.80;;;;;;5072090;28;20202;-54
2023/07/08 07:09:10;;;;;;;0.10;0.10;;;14.20;59.80;;;;;;5071948;28;20194;-50
2023/07/08 07:11:43;;;;;;;0.10;0.10;;;14.20;59.80;;;;;;5071077;28;20206;-56
2023/07/08 07:14:13;;;;;;;0.10;0.10;;;14.20;59.70;;;;;;5071967;28;20296;-54
2023/07/08 07:16:44;;;;;;;0.10;0.10;;;14.20;59.70;;;;;;5072641;28;20646;-54
2023/07/08 07:19:14;;;;;;;0.17;0.17;;;14.20;59.80;;;;;;5071975;28;20200;-54
2023/07/08 07:21:45;;;;;;;0.05;0.05;;;14.20;59.80;;;;;;5071600;28;20261;-54
2023/07/08 07:24:16;;;;;;;0.10;0.10;;;14.20;59.80;;;;;;5062252;28;20600;-54
2023/07/08 07:26:48;;;;;;;0.10;0.10;;;14.20;59.80;;;;;;5051046;28;20199;-54
2023/07/08 07:29:20;;;;;;;0.10;0.10;;;14.30;59.80;;;;;;5031797;28;20199;-52
2023/07/08 07:31:51;;;;;;;0.10;0.10;;;14.20;59.80;;;;;;5032209;28;20211;-58
2023/07/08 07:34:22;;;;;;;0.10;0.10;;;14.20;59.80;;;;;;5032042;28;20219;-55
2023/07/08 07:36:53;;;;;;;0.10;0.10;;;14.30;59.90;;;;;;5031693;28;20200;-58
2023/07/08 07:39:23;;;;;;;0.10;0.10;;;14.20;59.70;;;;;;5031721;28;20192;-55
2023/07/08 07:41:56;;;;;;;0.10;0.10;;;14.20;59.70;;;;;;5031329;28;20220;-54
2023/07/08 07:44:26;;;;;;;0.10;0.10;;;14.20;59.70;;;;;;5052494;28;20219;-55
2023/07/08 07:46:57;;;;;;;0.10;0.10;;;14.20;59.80;;;;;;5051963;28;20199;-54
2023/07/08 07:49:28;;;;;;;0.10;0.10;;;14.20;59.70;;;;;;5051582;28;20206;-57
2023/07/08 07:51:58;;;;;;;0.10;0.10;;;14.20;59.70;;;;;;5051311;28;20207;-57
2023/07/08 07:54:29;;;;;;;0.10;0.10;;;14.30;59.80;;;;;;5051277;28;20691;-54
2023/07/08 07:57:01;;;;;;;0.10;0.10;;;14.20;59.70;;;;;;5050789;28;20651;-56
2023/07/08 07:59:32;;;;;;;0.10;0.10;;;14.30;59.80;;;;;;5051472;28;20200;-58
2023/07/08 08:02:03;;;;;;;0.10;0.10;;;14.20;59.80;;;;;;5051864;28;20703;-57
2023/07/08 08:04:33;;;;;;;0.10;0.10;;;14.20;59.80;;;;;;5051311;28;20222;-54
2023/07/08 08:07:04;;;;;;;0.10;0.10;;;14.30;59.80;;;;;;5051669;28;20206;-52
2023/07/08 08:09:35;;;;;;;0.10;0.10;;;14.20;59.70;;;;;;5051275;28;20290;-56
2023/07/08 08:12:10;;;;;;;0.10;0.10;;;14.20;59.70;;;;;;5050193;28;20207;-52
2023/07/08 08:14:40;;;;;;;0.10;0.10;;;14.20;59.70;;;;;;5071380;28;20214;-58
2023/07/08 08:17:11;;;;;;;0.10;0.10;;;14.20;59.70;;;;;;5071919;28;20205;-55
2023/07/08 08:19:42;;;;;;;0.20;0.20;;;14.20;59.70;;;;;;5071064;28;20226;-59
2023/07/08 08:22:12;;;;;;;0.10;0.10;;;14.20;59.70;;;;;;5070482;28;20229;-55
2023/07/08 08:24:43;;;;;;;0.10;0.10;;;14.30;59.80;;;;;;5062986;28;20207;-57
2023/07/08 08:27:15;;;;;;;0.10;0.10;;;14.20;59.70;;;;;;5040694;28;20191;-55
2023/07/08 08:29:46;;;;;;;0.20;0.20;;;14.30;59.80;;;;;;5051180;28;20195;-54
2023/07/08 08:32:17;;;;;;;0.10;0.10;;;14.20;59.70;;;;;;5051245;28;20365;-59
2023/07/08 08:34:47;;;;;;;0.10;0.10;;;14.20;59.70;;;;;;5050934;28;20273;-58
2023/07/08 08:37:18;;;;;;;0.10;0.10;;;14.20;59.70;;;;;;5051128;28;20274;-57
2023/07/08 08:39:49;;;;;;;0.10;0.10;;;14.20;59.80;;;;;;5054763;28;20199;-57
2023/07/08 08:42:28;;;;;;;0.10;0.10;;;14.30;59.80;;;;;;5052448;28;20219;-57
2023/07/08 08:45:00;;;;;;;0.10;0.10;;;14.20;59.80;;;;;;5055178;28;20226;-58
2023/07/08 08:47:44;;;;;;;0.00;0.00;;;14.30;59.80;;;;;;5054838;28;20195;-55
2023/07/08 08:50:33;;;;;;;0.15;0.15;;;14.30;60.20;;;;;;5054706;28;20203;-49
2023/07/08 08:53:08;;;;;;;0.10;0.10;;;14.20;59.70;;;;;;5054666;28;20211;-51
2023/07/08 08:55:38;;;;;;;0.10;0.10;;;14.30;59.80;;;;;;5048505;28;20194;-52
2023/07/08 08:58:25;;;;;;;0.10;0.10;;;14.30;59.90;;;;;;5050341;28;20196;-56
2023/07/08 09:00:58;;;;;;;0.10;0.10;;;14.20;59.90;;;;;;5053403;28;20628;-54
2023/07/08 09:03:40;;;;;;;0.10;0.10;;;14.30;59.90;;;;;;5054276;28;20585;-55
2023/07/08 09:06:15;;;;;;;0.10;0.10;;;14.20;59.90;;;;;;5033595;28;20192;-49
2023/07/08 09:08:46;;;;;;;0.05;0.05;;;14.30;59.90;;;;;;5051590;28;20199;-55
2023/07/08 09:11:30;;;;;;;0.10;0.10;;;14.20;59.80;;;;;;5052581;28;20211;-56
2023/07/08 09:14:02;;;;;;;0.13;0.13;;;14.30;59.90;;;;;;5068876;28;20572;-51
2023/07/08 09:16:45;;;;;;;0.10;0.10;;;14.30;60.00;;;;;;5074220;28;20195;-52
2023/07/08 09:19:20;;;;;;;0.20;0.20;;;14.30;60.00;;;;;;5053926;28;20253;-57
2023/07/08 09:21:58;;;;;;;0.10;0.10;;;14.30;60.00;;;;;;5053759;28;20252;-56
2023/07/08 09:24:35;;;;;;;0.10;0.10;;;14.30;60.00;;;;;;5052299;28;20223;-57
2023/07/08 09:27:06;;;;;;;0.10;0.10;;;14.30;60.00;;;;;;5053098;28;20200;-51
2023/07/08 09:29:38;;;;;;;0.10;0.10;;;14.30;60.00;;;;;;5052939;28;20187;-56
2023/07/08 09:32:18;;;;;;;0.10;0.10;;;14.30;60.00;;;;;;5050806;28;20210;-51
2023/07/08 09:34:52;;;;;;;0.10;0.10;;;14.30;60.00;;;;;;5052534;28;20250;-58
2023/07/08 09:37:28;;;;;;;0.10;0.10;;;14.30;60.00;;;;;;5066272;28;20649;-53
2023/07/08 09:40:00;;;;;;;0.17;0.17;;;14.30;60.00;;;;;;5052233;28;20199;-52
2023/07/08 09:42:34;;;;;;;0.10;0.10;;;14.30;60.00;;;;;;5068885;28;20223;-54
2023/07/08 09:45:13;;;;;;;0.10;0.10;;;14.30;60.00;;;;;;5069731;28;20191;-57
2023/07/08 09:47:45;;;;;;;0.10;0.10;;;14.30;60.00;;;;;;5039670;28;20184;-53
2023/07/08 09:50:22;;;;;;;0.10;0.10;;;14.30;60.10;;;;;;5041948;28;20262;-52
2023/07/08 09:52:54;;;;;;;0.10;0.10;;;14.30;60.20;;;;;;5060691;28;20222;-52
2023/07/08 09:55:25;;;;;;;0.20;0.20;;;14.30;60.20;;;;;;5032437;28;20211;-54
2023/07/08 09:57:58;;;;;;;0.20;0.20;;;14.40;60.30;;;;;;5040051;28;20640;-53
2023/07/08 10:00:40;;;;;;;0.10;0.10;;;14.40;60.30;;;;;;5053181;28;20551;-58
2023/07/08 10:03:20;;;;;;;0.10;0.10;;;14.40;60.30;;;;;;5052725;28;20222;-58
2023/07/08 10:05:51;;;;;;;0.10;0.10;;;14.40;60.20;;;;;;5053043;28;20199;-53
2023/07/08 10:08:23;;;;;;;0.10;0.10;;;14.40;60.30;;;;;;5052542;28;20192;-54
2023/07/08 10:11:00;;;;;;;0.17;0.17;;;14.40;60.30;;;;;;5052433;28;20290;-54
2023/07/08 10:13:40;;;;;;;0.10;0.10;;;14.40;60.30;;;;;;5063913;28;20234;-54
2023/07/08 10:16:16;;;;;;;0.13;0.13;;;14.40;60.30;;;;;;5073368;28;20562;-55
2023/07/08 10:18:47;;;;;;;0.10;0.10;;;14.40;60.20;;;;;;5058193;28;20643;-56
2023/07/08 10:21:31;;;;;;;0.20;0.20;;;14.40;60.20;;;;;;5050505;28;20211;-56
2023/07/08 10:24:14;;;;;;;0.10;0.10;;;14.40;60.20;;;;;;5052689;28;20234;-55
2023/07/08 10:26:48;;;;;;;0.10;0.10;;;14.40;60.20;;;;;;5051847;28;20191;-55
2023/07/08 10:29:30;;;;;;;0.10;0.10;;;14.40;60.20;;;;;;5052323;28;20195;-57
2023/07/08 10:32:10;;;;;;;0.10;0.10;;;14.40;60.30;;;;;;5052003;28;20682;-59
2023/07/08 10:34:49;;;;;;;0.10;0.10;;;14.40;60.30;;;;;;5045625;28;20207;-57
2023/07/08 10:37:28;;;;;;;0.10;0.10;;;14.40;60.30;;;;;;5051739;28;20202;-57
2023/07/08 10:40:22;;;;;;;0.20;0.20;;;14.40;60.30;;;;;;5049329;28;20191;-55
2023/07/08 10:43:09;;;;;;;0.10;0.10;;;14.50;60.40;;;;;;5038318;28;20470;-52
2023/07/08 10:45:55;;;;;;;0.10;0.10;;;14.40;60.20;;;;;;5052111;28;20675;-58
2023/07/08 10:48:47;;;;;;;0.10;0.10;;;14.40;60.30;;;;;;5052070;28;20686;-58
2023/07/08 10:51:28;;;;;;;0.10;0.10;;;14.40;60.30;;;;;;5052316;28;20261;-59
2023/07/08 10:54:35;;;;;;;0.13;0.13;;;14.50;60.30;;;;;;5052014;28;20697;-55
2023/07/08 10:57:23;;;;;;;0.10;0.10;;;14.40;60.30;;;;;;5016655;28;20195;-59
2023/07/08 11:00:02;;;;;;;0.10;0.10;;;14.50;60.40;;;;;;5051447;28;20199;-56
2023/07/08 11:03:05;;;;;;;0.10;0.10;;;14.40;60.30;;;;;;5051597;28;20226;-59
2023/07/08 11:05:44;;;;;;;0.15;0.15;;;14.40;60.30;;;;;;5049392;28;20268;-54
2023/07/08 11:08:21;;;;;;;0.10;0.10;;;14.50;60.40;;;;;;5051579;28;20222;-58
2023/07/08 11:10:56;;;;;;;0.10;0.10;;;14.50;60.40;;;;;;5050713;28;20214;-57
2023/07/08 11:13:29;;;;;;;0.10;0.10;;;14.50;60.50;;;;;;5054084;28;20764;-58
2023/07/08 11:16:05;;;;;;;0.10;0.10;;;14.50;60.50;;;;;;5051653;28;20199;-55
2023/07/08 11:18:43;;;;;;;0.10;0.10;;;14.50;60.50;;;;;;5052253;28;20195;-58
2023/07/08 11:21:20;;;;;;;0.10;0.10;;;14.50;60.40;;;;;;5050930;28;20211;-57
2023/07/08 11:23:53;;;;;;;0.10;0.10;;;14.50;60.50;;;;;;5044174;28;20203;-59
2023/07/08 11:26:30;;;;;;;0.10;0.10;;;14.50;60.40;;;;;;5042291;28;20431;-55
2023/07/08 11:29:02;;;;;;;0.17;0.17;;;14.50;60.50;;;;;;5041260;28;20195;-58
2023/07/08 11:31:35;;;;;;;0.10;0.10;;;14.50;60.50;;;;;;5040642;28;20192;-56
2023/07/08 11:34:07;;;;;;;0.10;0.10;;;14.50;60.50;;;;;;5043094;28;20203;-57
2023/07/08 11:36:41;;;;;;;0.10;0.10;;;14.60;60.70;;;;;;5041237;28;20192;-55
2023/07/08 11:39:36;;;;;;;0.05;0.05;;;14.50;60.60;;;;;;5044257;28;20187;-57
2023/07/08 11:42:22;;;;;;;0.10;0.10;;;14.50;60.50;;;;;;5031052;28;20255;-52
2023/07/08 11:44:55;;;;;;;0.10;0.10;;;14.50;60.40;;;;;;5031507;28;20188;-54
2023/07/08 11:47:34;;;;;;;0.10;0.10;;;14.50;60.40;;;;;;5040803;28;20644;-58
2023/07/08 11:50:06;;;;;;;0.08;0.08;;;14.50;60.50;;;;;;5040062;28;20206;-56
2023/07/08 11:52:40;;;;;;;0.10;0.10;;;14.60;60.60;;;;;;5044177;28;20214;-54
2023/07/08 11:55:24;;;;;;;0.10;0.10;;;14.50;60.40;;;;;;5041341;28;20205;-52
2023/07/08 11:57:57;;;;;;;0.10;0.10;;;14.60;60.60;;;;;;5042118;28;20629;-55
2023/07/08 12:00:33;;;;;;;0.10;0.10;;;14.60;60.60;;;;;;5030856;28;20228;-57
2023/07/08 12:03:21;;;;;;;0.10;0.10;;;14.60;60.60;;;;;;5030877;28;20288;-55
2023/07/08 12:05:52;;;;;;;0.15;0.15;;;14.60;60.60;;;;;;5037191;28;20200;-60
2023/07/08 12:08:36;;;;;;;0.10;0.10;;;14.60;60.60;;;;;;5040799;28;20215;-48
2023/07/08 12:11:11;;;;;;;0.10;0.10;;;14.60;60.60;;;;;;5039736;28;20245;-56
2023/07/08 12:13:42;;;;;;;0.10;0.10;;;14.60;60.60;;;;;;5045530;28;20215;-52
2023/07/08 12:16:15;;;;;;;0.20;0.20;;;14.60;60.60;;;;;;5039667;28;20188;-53
2023/07/08 12:18:47;;;;;;;0.10;0.10;;;14.60;60.60;;;;;;5039789;28;20194;-57
2023/07/08 12:21:18;;;;;;;0.10;0.10;;;14.60;60.50;;;;;;5038447;28;20690;-50
2023/07/08 12:23:51;;;;;;;0.10;0.10;;;14.60;60.50;;;;;;5040847;28;20207;-56
2023/07/08 12:26:24;;;;;;;0.10;0.10;;;14.60;60.50;;;;;;5040005;28;20195;-58
2023/07/08 12:28:55;;;;;;;0.10;0.10;;;14.60;60.40;;;;;;5040400;28;20191;-58
2023/07/08 12:31:27;;;;;;;0.10;0.10;;;14.60;60.40;;;;;;5040175;28;20599;-55
2023/07/08 12:33:58;;;;;;;0.10;0.10;;;14.60;60.40;;;;;;5038327;28;20220;-59
2023/07/08 12:36:31;;;;;;;0.10;0.10;;;14.60;60.40;;;;;;5039901;28;20192;-56
2023/07/08 12:39:05;;;;;;;0.10;0.10;;;14.70;60.50;;;;;;5038201;28;20199;-56
2023/07/08 12:41:37;;;;;;;0.10;0.10;;;14.60;60.50;;;;;;5040223;28;20352;-59
2023/07/08 12:44:18;;;;;;;0.10;0.10;;;14.60;60.50;;;;;;5043250;28;20222;-57
2023/07/08 12:46:50;;;;;;;0.10;0.10;;;14.60;60.50;;;;;;5041609;28;20574;-55
2023/07/08 12:49:23;;;;;;;0.10;0.10;;;14.60;60.50;;;;;;5041716;28;20207;-59
2023/07/08 12:51:54;;;;;;;0.10;0.10;;;14.60;60.50;;;;;;5040375;28;20273;-59
2023/07/08 12:54:26;;;;;;;0.10;0.10;;;14.60;60.40;;;;;;5039193;28;20214;-58
2023/07/08 12:56:58;;;;;;;0.10;0.10;;;14.60;60.50;;;;;;5040336;28;20188;-59
2023/07/08 12:59:29;;;;;;;0.10;0.10;;;14.60;60.50;;;;;;5039978;28;20192;-60
2023/07/08 13:01:59;;;;;;;0.10;0.10;;;14.60;60.40;;;;;;5039851;28;20219;-59
2023/07/08 13:04:31;;;;;;;0.10;0.10;;;14.60;60.40;;;;;;5042811;28;20220;-60
2023/07/08 13:07:03;;;;;;;0.10;0.10;;;14.60;60.30;;;;;;5051087;28;20218;-57
2023/07/08 13:09:40;;;;;;;0.10;0.10;;;14.60;60.30;;;;;;5050851;28;20206;-58
2023/07/08 13:12:20;;;;;;;0.08;0.08;;;14.70;60.40;;;;;;5050569;28;20207;-60
2023/07/08 13:14:51;;;;;;;0.10;0.10;;;14.70;60.40;;;;;;5070799;28;20555;-60
2023/07/08 13:17:22;;;;;;;0.10;0.10;;;14.70;60.40;;;;;;5068460;28;20697;-59
2023/07/08 13:19:53;;;;;;;0.10;0.10;;;14.70;60.40;;;;;;5051131;28;20222;-53